Impacts METAR Board
IDs:

KLZZ - Lampasas Arpt, TX, US

Updated at: 0100 UTC 01 Nov 2020
Potential Impact None Slight Moderate High
Time 31/13Z 31/14Z 31/15Z 31/16Z 31/17Z 31/18Z 31/19Z 31/20Z 31/21Z 31/22Z 31/23Z 01/00Z 01/01Z
Temp44 49 54 63 65 69 71 73 75 75 74 64 62
Dewpt37 38 40 39 38 37 39 40 41 40 41 44 43
Altim30.19 30.20 30.22 30.21 30.20 30.17 30.14 30.09 30.07 30.07 30.07 30.09 30.11
VIS10 10 10 10 10 10 10 10 10 10 10 10 10
CIG-- -- -- -- -- -- -- -- -- -- -- -- --
CoverCLRCLRCLRCLRCLRCLRCLRCLRCLRCLRCLRCLRCLR
FltCatVFRVFRVFRVFRVFRVFRVFRVFRVFRVFRVFRVFRVFR
WX--------------------------
WDir00019022023021021018020020000
WSpd0 0 0 6 8 7 8 6 5 4 3 0 0
WGst-- -- -- -- -- -- -- -- -- -- -- -- --
Raw hourly METARs
KLZZ 311255Z AUTO 00000KT 10SM CLR 07/03 A3019 RMK AO2 T00650026
KLZZ 311355Z AUTO 00000KT 10SM CLR 10/04 A3020 RMK AO2 T00950035
KLZZ 311455Z AUTO 00000KT 10SM CLR 12/05 A3022 RMK AO2 T01200045
KLZZ 311555Z AUTO 19006KT 10SM CLR 17/04 A3021 RMK AO2 T01730038
KLZZ 311655Z AUTO 22008KT 10SM CLR 18/03 A3020 RMK AO2 T01840033
KLZZ 311755Z AUTO 23007KT 10SM CLR 20/03 A3017 RMK AO2 T02040027 10204 20042
KLZZ 311855Z AUTO 21008KT 10SM CLR 22/04 A3014 RMK AO2 T02170040
KLZZ 311955Z AUTO 21006KT 10SM CLR 23/04 A3009 RMK AO2 T02260042
KLZZ 312055Z AUTO 18005KT 10SM CLR 24/05 A3007 RMK AO2 T02400049
KLZZ 312155Z AUTO 20004KT 10SM CLR 24/04 A3007 RMK AO2 T02410042
KLZZ 312255Z AUTO 20003KT 10SM CLR 23/05 A3007 RMK AO2 T02310050
KLZZ 312355Z AUTO 00000KT 10SM CLR 18/07 A3009 RMK AO2 T01800069 10244 20176
KLZZ 010055Z AUTO 00000KT 10SM CLR 17/06 A3011 RMK AO2 T01670063